sensor_id;sensor_type;location;lat;lon;timestamp;P1;durP1;ratioP1;P2;durP2;ratioP2
43801;SDS011;29429;51.074;13.764;2023-03-01T00:01:39;34.92;;;19.20;;
43801;SDS011;29429;51.074;13.764;2023-03-01T00:04:06;36.10;;;18.50;;
43801;SDS011;29429;51.074;13.764;2023-03-01T00:06:33;39.20;;;20.33;;
43801;SDS011;29429;51.074;13.764;2023-03-01T00:09:00;38.03;;;19.88;;
43801;SDS011;29429;51.074;13.764;2023-03-01T00:11:28;40.20;;;19.75;;
43801;SDS011;29429;51.074;13.764;2023-03-01T00:13:58;41.78;;;19.92;;
43801;SDS011;29429;51.074;13.764;2023-03-01T00:16:28;35.35;;;18.50;;
43801;SDS011;29429;51.074;13.764;2023-03-01T00:19:00;39.22;;;19.23;;
43801;SDS011;29429;51.074;13.764;2023-03-01T00:21:26;37.40;;;18.02;;
43801;SDS011;29429;51.074;13.764;2023-03-01T00:23:54;34.35;;;19.05;;
43801;SDS011;29429;51.074;13.764;2023-03-01T00:26:22;38.30;;;18.90;;
43801;SDS011;29429;51.074;13.764;2023-03-01T00:28:51;39.38;;;19.50;;
43801;SDS011;29429;51.074;13.764;2023-03-01T00:31:19;38.65;;;18.90;;
43801;SDS011;29429;51.074;13.764;2023-03-01T00:33:52;41.72;;;21.40;;
43801;SDS011;29429;51.074;13.764;2023-03-01T00:36:24;41.00;;;19.92;;
43801;SDS011;29429;51.074;13.764;2023-03-01T00:38:56;37.28;;;18.42;;
43801;SDS011;29429;51.074;13.764;2023-03-01T00:41:25;42.20;;;21.23;;
43801;SDS011;29429;51.074;13.764;2023-03-01T00:43:53;43.92;;;21.65;;
43801;SDS011;29429;51.074;13.764;2023-03-01T00:46:22;37.15;;;18.27;;
43801;SDS011;29429;51.074;13.764;2023-03-01T00:48:53;39.60;;;18.45;;
43801;SDS011;29429;51.074;13.764;2023-03-01T00:51:22;40.20;;;18.17;;
43801;SDS011;29429;51.074;13.764;2023-03-01T00:53:53;33.13;;;18.10;;
43801;SDS011;29429;51.074;13.764;2023-03-01T00:56:25;30.42;;;15.80;;
43801;SDS011;29429;51.074;13.764;2023-03-01T00:58:52;33.85;;;16.45;;
43801;SDS011;29429;51.074;13.764;2023-03-01T01:01:21;32.10;;;16.35;;
43801;SDS011;29429;51.074;13.764;2023-03-01T01:04:02;33.53;;;16.20;;
43801;SDS011;29429;51.074;13.764;2023-03-01T01:06:39;31.15;;;15.73;;
43801;SDS011;29429;51.074;13.764;2023-03-01T01:09:15;31.65;;;16.83;;
43801;SDS011;29429;51.074;13.764;2023-03-01T01:11:48;30.80;;;15.65;;
43801;SDS011;29429;51.074;13.764;2023-03-01T01:14:18;31.70;;;16.30;;
43801;SDS011;29429;51.074;13.764;2023-03-01T01:16:47;33.85;;;17.63;;
43801;SDS011;29429;51.074;13.764;2023-03-01T01:19:14;33.20;;;16.52;;
43801;SDS011;29429;51.074;13.764;2023-03-01T01:21:43;35.17;;;17.42;;
43801;SDS011;29429;51.074;13.764;2023-03-01T01:24:11;34.63;;;16.40;;
43801;SDS011;29429;51.074;13.764;2023-03-01T01:26:38;36.13;;;16.95;;
43801;SDS011;29429;51.074;13.764;2023-03-01T01:29:05;32.63;;;17.08;;
43801;SDS011;29429;51.074;13.764;2023-03-01T01:31:33;29.10;;;16.15;;
43801;SDS011;29429;51.074;13.764;2023-03-01T01:34:03;32.28;;;16.17;;
43801;SDS011;29429;51.074;13.764;2023-03-01T01:36:32;34.25;;;15.82;;
43801;SDS011;29429;51.074;13.764;2023-03-01T01:39:00;30.02;;;15.70;;
43801;SDS011;29429;51.074;13.764;2023-03-01T01:41:28;31.65;;;16.30;;
43801;SDS011;29429;51.074;13.764;2023-03-01T01:49:37;32.92;;;15.10;;
43801;SDS011;29429;51.074;13.764;2023-03-01T01:55:02;34.25;;;16.17;;
43801;SDS011;29429;51.074;13.764;2023-03-01T01:57:39;33.25;;;15.82;;
43801;SDS011;29429;51.074;13.764;2023-03-01T02:00:13;30.25;;;15.15;;
43801;SDS011;29429;51.074;13.764;2023-03-01T02:02:46;34.92;;;17.10;;
43801;SDS011;29429;51.074;13.764;2023-03-01T02:05:42;33.10;;;16.48;;
43801;SDS011;29429;51.074;13.764;2023-03-01T02:08:21;31.58;;;14.98;;
43801;SDS011;29429;51.074;13.764;2023-03-01T02:10:54;31.38;;;15.90;;
43801;SDS011;29429;51.074;13.764;2023-03-01T02:13:22;38.00;;;16.77;;
43801;SDS011;29429;51.074;13.764;2023-03-01T02:15:49;31.23;;;15.80;;
43801;SDS011;29429;51.074;13.764;2023-03-01T02:18:17;29.30;;;15.85;;
43801;SDS011;29429;51.074;13.764;2023-03-01T02:21:13;34.10;;;17.02;;
43801;SDS011;29429;51.074;13.764;2023-03-01T02:23:54;31.52;;;16.17;;
43801;SDS011;29429;51.074;13.764;2023-03-01T02:26:27;32.78;;;17.08;;
43801;SDS011;29429;51.074;13.764;2023-03-01T02:29:01;37.67;;;18.45;;
43801;SDS011;29429;51.074;13.764;2023-03-01T02:31:28;39.85;;;18.85;;
43801;SDS011;29429;51.074;13.764;2023-03-01T02:34:13;32.40;;;17.20;;
43801;SDS011;29429;51.074;13.764;2023-03-01T02:36:48;37.45;;;18.58;;
43801;SDS011;29429;51.074;13.764;2023-03-01T02:39:30;35.42;;;17.85;;
43801;SDS011;29429;51.074;13.764;2023-03-01T02:44:40;36.78;;;17.55;;
43801;SDS011;29429;51.074;13.764;2023-03-01T02:47:07;35.58;;;18.08;;
43801;SDS011;29429;51.074;13.764;2023-03-01T02:49:35;35.97;;;17.95;;
43801;SDS011;29429;51.074;13.764;2023-03-01T02:55:13;34.83;;;17.98;;
43801;SDS011;29429;51.074;13.764;2023-03-01T02:57:44;38.80;;;18.77;;
43801;SDS011;29429;51.074;13.764;2023-03-01T03:00:26;38.72;;;19.42;;
43801;SDS011;29429;51.074;13.764;2023-03-01T03:03:02;39.65;;;19.88;;
43801;SDS011;29429;51.074;13.764;2023-03-01T03:05:31;36.17;;;17.52;;
43801;SDS011;29429;51.074;13.764;2023-03-01T03:08:00;36.15;;;18.70;;
43801;SDS011;29429;51.074;13.764;2023-03-01T03:10:35;36.75;;;18.55;;
43801;SDS011;29429;51.074;13.764;2023-03-01T03:13:06;39.75;;;19.15;;
43801;SDS011;29429;51.074;13.764;2023-03-01T03:15:38;35.38;;;18.00;;
43801;SDS011;29429;51.074;13.764;2023-03-01T03:18:08;39.58;;;19.60;;
43801;SDS011;29429;51.074;13.764;2023-03-01T03:20:39;37.13;;;18.92;;
43801;SDS011;29429;51.074;13.764;2023-03-01T03:23:08;42.15;;;19.42;;
43801;SDS011;29429;51.074;13.764;2023-03-01T03:25:35;37.35;;;18.48;;
43801;SDS011;29429;51.074;13.764;2023-03-01T03:28:04;40.33;;;18.88;;
43801;SDS011;29429;51.074;13.764;2023-03-01T03:30:37;40.28;;;20.50;;
43801;SDS011;29429;51.074;13.764;2023-03-01T03:33:07;39.38;;;18.80;;
43801;SDS011;29429;51.074;13.764;2023-03-01T03:35:48;40.25;;;19.63;;
43801;SDS011;29429;51.074;13.764;2023-03-01T03:38:18;37.28;;;18.42;;
43801;SDS011;29429;51.074;13.764;2023-03-01T03:40:49;38.78;;;19.13;;
43801;SDS011;29429;51.074;13.764;2023-03-01T03:43:30;43.17;;;19.63;;
43801;SDS011;29429;51.074;13.764;2023-03-01T03:46:00;38.92;;;19.63;;
43801;SDS011;29429;51.074;13.764;2023-03-01T03:48:36;42.05;;;20.25;;
43801;SDS011;29429;51.074;13.764;2023-03-01T03:51:06;37.28;;;18.88;;
43801;SDS011;29429;51.074;13.764;2023-03-01T03:53:37;37.55;;;18.80;;
43801;SDS011;29429;51.074;13.764;2023-03-01T03:56:05;41.65;;;19.33;;
43801;SDS011;29429;51.074;13.764;2023-03-01T03:58:32;42.33;;;19.98;;
43801;SDS011;29429;51.074;13.764;2023-03-01T04:01:00;42.00;;;20.05;;
43801;SDS011;29429;51.074;13.764;2023-03-01T04:03:28;41.35;;;20.77;;
43801;SDS011;29429;51.074;13.764;2023-03-01T04:05:57;38.47;;;17.33;;
43801;SDS011;29429;51.074;13.764;2023-03-01T04:08:25;48.10;;;20.02;;
43801;SDS011;29429;51.074;13.764;2023-03-01T04:10:57;42.05;;;19.52;;
43801;SDS011;29429;51.074;13.764;2023-03-01T04:13:47;37.92;;;18.23;;
43801;SDS011;29429;51.074;13.764;2023-03-01T04:16:14;40.00;;;17.08;;
43801;SDS011;29429;51.074;13.764;2023-03-01T04:18:42;39.67;;;18.45;;
43801;SDS011;29429;51.074;13.764;2023-03-01T04:21:10;42.45;;;20.73;;
43801;SDS011;29429;51.074;13.764;2023-03-01T04:23:38;44.55;;;20.70;;
43801;SDS011;29429;51.074;13.764;2023-03-01T04:26:06;44.92;;;21.65;;
43801;SDS011;29429;51.074;13.764;2023-03-01T04:28:35;39.00;;;20.23;;
43801;SDS011;29429;51.074;13.764;2023-03-01T04:31:13;43.00;;;20.65;;
43801;SDS011;29429;51.074;13.764;2023-03-01T04:33:48;43.05;;;20.00;;
43801;SDS011;29429;51.074;13.764;2023-03-01T04:36:25;45.88;;;21.77;;
43801;SDS011;29429;51.074;13.764;2023-03-01T04:38:55;41.53;;;20.42;;
43801;SDS011;29429;51.074;13.764;2023-03-01T04:41:23;41.13;;;20.35;;
43801;SDS011;29429;51.074;13.764;2023-03-01T04:43:52;42.17;;;19.38;;
43801;SDS011;29429;51.074;13.764;2023-03-01T04:46:19;42.13;;;19.75;;
43801;SDS011;29429;51.074;13.764;2023-03-01T04:48:47;39.63;;;20.38;;
43801;SDS011;29429;51.074;13.764;2023-03-01T04:51:15;42.85;;;20.25;;
43801;SDS011;29429;51.074;13.764;2023-03-01T04:53:43;46.50;;;19.90;;
43801;SDS011;29429;51.074;13.764;2023-03-01T04:56:10;38.83;;;19.45;;
43801;SDS011;29429;51.074;13.764;2023-03-01T04:58:40;42.63;;;20.30;;
43801;SDS011;29429;51.074;13.764;2023-03-01T05:01:11;42.70;;;19.83;;
43801;SDS011;29429;51.074;13.764;2023-03-01T05:03:48;42.90;;;20.15;;
43801;SDS011;29429;51.074;13.764;2023-03-01T05:06:18;46.72;;;21.13;;
43801;SDS011;29429;51.074;13.764;2023-03-01T05:08:46;44.63;;;21.65;;
43801;SDS011;29429;51.074;13.764;2023-03-01T05:11:13;38.40;;;19.27;;
43801;SDS011;29429;51.074;13.764;2023-03-01T05:13:40;40.85;;;19.80;;
43801;SDS011;29429;51.074;13.764;2023-03-01T05:16:08;39.50;;;20.08;;
43801;SDS011;29429;51.074;13.764;2023-03-01T05:18:38;46.65;;;20.73;;
43801;SDS011;29429;51.074;13.764;2023-03-01T05:21:08;40.38;;;20.00;;
43801;SDS011;29429;51.074;13.764;2023-03-01T05:23:38;41.58;;;19.83;;
43801;SDS011;29429;51.074;13.764;2023-03-01T05:26:06;46.80;;;20.23;;
43801;SDS011;29429;51.074;13.764;2023-03-01T05:28:52;45.80;;;21.63;;
43801;SDS011;29429;51.074;13.764;2023-03-01T05:31:25;46.65;;;20.65;;
43801;SDS011;29429;51.074;13.764;2023-03-01T05:33:53;43.42;;;20.42;;
43801;SDS011;29429;51.074;13.764;2023-03-01T05:36:20;42.67;;;20.90;;
43801;SDS011;29429;51.074;13.764;2023-03-01T05:38:47;41.53;;;20.25;;
43801;SDS011;29429;51.074;13.764;2023-03-01T05:41:14;42.08;;;18.90;;
43801;SDS011;29429;51.074;13.764;2023-03-01T05:43:43;43.65;;;20.67;;
43801;SDS011;29429;51.074;13.764;2023-03-01T05:46:11;47.50;;;22.15;;
43801;SDS011;29429;51.074;13.764;2023-03-01T05:48:39;38.78;;;19.63;;
43801;SDS011;29429;51.074;13.764;2023-03-01T05:51:06;45.75;;;21.13;;
43801;SDS011;29429;51.074;13.764;2023-03-01T05:53:34;42.80;;;20.50;;
43801;SDS011;29429;51.074;13.764;2023-03-01T05:56:03;43.10;;;20.40;;
43801;SDS011;29429;51.074;13.764;2023-03-01T05:58:30;41.80;;;19.88;;
43801;SDS011;29429;51.074;13.764;2023-03-01T06:00:57;41.45;;;19.38;;
43801;SDS011;29429;51.074;13.764;2023-03-01T06:03:24;39.35;;;19.70;;
43801;SDS011;29429;51.074;13.764;2023-03-01T06:06:00;42.40;;;20.52;;
43801;SDS011;29429;51.074;13.764;2023-03-01T06:08:32;43.05;;;19.75;;
43801;SDS011;29429;51.074;13.764;2023-03-01T06:10:59;43.22;;;20.48;;
43801;SDS011;29429;51.074;13.764;2023-03-01T06:13:26;46.40;;;21.63;;
43801;SDS011;29429;51.074;13.764;2023-03-01T06:15:53;42.60;;;21.45;;
43801;SDS011;29429;51.074;13.764;2023-03-01T06:18:20;45.63;;;21.20;;
43801;SDS011;29429;51.074;13.764;2023-03-01T06:20:54;46.05;;;21.83;;
43801;SDS011;29429;51.074;13.764;2023-03-01T06:23:22;49.00;;;23.02;;
43801;SDS011;29429;51.074;13.764;2023-03-01T06:25:50;45.83;;;21.65;;
43801;SDS011;29429;51.074;13.764;2023-03-01T06:28:17;39.20;;;20.33;;
43801;SDS011;29429;51.074;13.764;2023-03-01T06:30:44;47.05;;;21.35;;
43801;SDS011;29429;51.074;13.764;2023-03-01T06:33:12;41.90;;;21.52;;
43801;SDS011;29429;51.074;13.764;2023-03-01T06:35:39;48.45;;;22.27;;
43801;SDS011;29429;51.074;13.764;2023-03-01T06:38:06;46.65;;;22.83;;
43801;SDS011;29429;51.074;13.764;2023-03-01T06:40:33;44.20;;;21.60;;
43801;SDS011;29429;51.074;13.764;2023-03-01T06:43:01;48.80;;;22.52;;
43801;SDS011;29429;51.074;13.764;2023-03-01T06:45:28;45.97;;;22.90;;
43801;SDS011;29429;51.074;13.764;2023-03-01T06:48:02;48.97;;;22.75;;
43801;SDS011;29429;51.074;13.764;2023-03-01T06:50:34;46.88;;;22.48;;
43801;SDS011;29429;51.074;13.764;2023-03-01T06:53:03;45.38;;;20.83;;
43801;SDS011;29429;51.074;13.764;2023-03-01T07:00:21;45.85;;;22.92;;
43801;SDS011;29429;51.074;13.764;2023-03-01T07:02:49;48.88;;;24.17;;
43801;SDS011;29429;51.074;13.764;2023-03-01T07:05:16;45.63;;;22.15;;
43801;SDS011;29429;51.074;13.764;2023-03-01T07:07:44;48.60;;;22.85;;
43801;SDS011;29429;51.074;13.764;2023-03-01T07:10:17;48.40;;;22.63;;
43801;SDS011;29429;51.074;13.764;2023-03-01T07:12:44;45.17;;;23.55;;
43801;SDS011;29429;51.074;13.764;2023-03-01T07:15:14;47.63;;;23.73;;
43801;SDS011;29429;51.074;13.764;2023-03-01T07:17:52;48.33;;;23.60;;
43801;SDS011;29429;51.074;13.764;2023-03-01T07:20:20;45.55;;;22.98;;
43801;SDS011;29429;51.074;13.764;2023-03-01T07:22:52;48.55;;;25.00;;
43801;SDS011;29429;51.074;13.764;2023-03-01T07:25:20;47.95;;;24.08;;
43801;SDS011;29429;51.074;13.764;2023-03-01T07:27:49;42.83;;;21.50;;
43801;SDS011;29429;51.074;13.764;2023-03-01T07:30:18;45.55;;;23.50;;
43801;SDS011;29429;51.074;13.764;2023-03-01T07:32:47;50.03;;;24.38;;
43801;SDS011;29429;51.074;13.764;2023-03-01T07:35:14;42.03;;;23.23;;
43801;SDS011;29429;51.074;13.764;2023-03-01T07:37:44;43.63;;;23.00;;
43801;SDS011;29429;51.074;13.764;2023-03-01T07:40:12;49.13;;;26.02;;
43801;SDS011;29429;51.074;13.764;2023-03-01T07:42:39;46.92;;;24.08;;
43801;SDS011;29429;51.074;13.764;2023-03-01T07:45:06;56.47;;;26.15;;
43801;SDS011;29429;51.074;13.764;2023-03-01T07:47:34;48.45;;;24.20;;
43801;SDS011;29429;51.074;13.764;2023-03-01T07:50:01;48.85;;;22.92;;
43801;SDS011;29429;51.074;13.764;2023-03-01T07:52:31;53.13;;;25.88;;
43801;SDS011;29429;51.074;13.764;2023-03-01T07:55:09;52.13;;;25.38;;
43801;SDS011;29429;51.074;13.764;2023-03-01T07:57:37;52.50;;;25.10;;
43801;SDS011;29429;51.074;13.764;2023-03-01T08:00:13;57.38;;;25.67;;
43801;SDS011;29429;51.074;13.764;2023-03-01T08:02:50;47.10;;;22.95;;
43801;SDS011;29429;51.074;13.764;2023-03-01T08:05:18;46.30;;;23.70;;
43801;SDS011;29429;51.074;13.764;2023-03-01T08:07:45;49.30;;;24.55;;
43801;SDS011;29429;51.074;13.764;2023-03-01T08:10:12;52.80;;;25.40;;
43801;SDS011;29429;51.074;13.764;2023-03-01T08:12:39;46.25;;;23.67;;
43801;SDS011;29429;51.074;13.764;2023-03-01T08:15:07;45.65;;;23.35;;
43801;SDS011;29429;51.074;13.764;2023-03-01T08:17:34;45.80;;;23.30;;
43801;SDS011;29429;51.074;13.764;2023-03-01T08:20:02;43.28;;;23.10;;
43801;SDS011;29429;51.074;13.764;2023-03-01T08:22:32;40.95;;;23.48;;
43801;SDS011;29429;51.074;13.764;2023-03-01T08:24:59;46.20;;;23.15;;
43801;SDS011;29429;51.074;13.764;2023-03-01T08:27:26;42.80;;;22.23;;
43801;SDS011;29429;51.074;13.764;2023-03-01T08:29:53;46.22;;;23.92;;
43801;SDS011;29429;51.074;13.764;2023-03-01T08:35:21;45.83;;;25.40;;
43801;SDS011;29429;51.074;13.764;2023-03-01T08:37:49;44.38;;;24.02;;
43801;SDS011;29429;51.074;13.764;2023-03-01T08:40:16;47.13;;;23.98;;
43801;SDS011;29429;51.074;13.764;2023-03-01T08:42:43;46.88;;;25.52;;
43801;SDS011;29429;51.074;13.764;2023-03-01T08:45:10;45.78;;;23.50;;
43801;SDS011;29429;51.074;13.764;2023-03-01T08:47:47;46.00;;;24.33;;
43801;SDS011;29429;51.074;13.764;2023-03-01T08:50:21;46.28;;;23.70;;
43801;SDS011;29429;51.074;13.764;2023-03-01T08:52:52;51.30;;;25.42;;
43801;SDS011;29429;51.074;13.764;2023-03-01T08:55:45;50.88;;;26.30;;
43801;SDS011;29429;51.074;13.764;2023-03-01T08:58:15;49.22;;;24.77;;
43801;SDS011;29429;51.074;13.764;2023-03-01T09:00:42;44.90;;;23.77;;
43801;SDS011;29429;51.074;13.764;2023-03-01T09:03:09;44.45;;;22.55;;
43801;SDS011;29429;51.074;13.764;2023-03-01T09:05:37;39.55;;;23.55;;
43801;SDS011;29429;51.074;13.764;2023-03-01T09:08:04;41.53;;;23.80;;
43801;SDS011;29429;51.074;13.764;2023-03-01T09:10:33;41.22;;;23.48;;
43801;SDS011;29429;51.074;13.764;2023-03-01T09:13:11;42.55;;;23.83;;
43801;SDS011;29429;51.074;13.764;2023-03-01T09:16:02;46.50;;;25.00;;
43801;SDS011;29429;51.074;13.764;2023-03-01T09:18:32;46.00;;;23.55;;
43801;SDS011;29429;51.074;13.764;2023-03-01T09:21:01;39.45;;;22.45;;
43801;SDS011;29429;51.074;13.764;2023-03-01T09:23:37;41.78;;;22.58;;
43801;SDS011;29429;51.074;13.764;2023-03-01T09:26:16;41.90;;;22.90;;
43801;SDS011;29429;51.074;13.764;2023-03-01T09:28:53;51.30;;;25.58;;
43801;SDS011;29429;51.074;13.764;2023-03-01T09:31:22;44.10;;;23.90;;
43801;SDS011;29429;51.074;13.764;2023-03-01T09:33:51;39.40;;;22.92;;
43801;SDS011;29429;51.074;13.764;2023-03-01T09:36:22;43.50;;;22.65;;
43801;SDS011;29429;51.074;13.764;2023-03-01T09:38:54;44.15;;;23.95;;
43801;SDS011;29429;51.074;13.764;2023-03-01T09:44:37;42.55;;;23.42;;
43801;SDS011;29429;51.074;13.764;2023-03-01T09:47:17;40.25;;;23.55;;
43801;SDS011;29429;51.074;13.764;2023-03-01T09:50:00;42.95;;;22.65;;
43801;SDS011;29429;51.074;13.764;2023-03-01T09:52:50;40.35;;;21.58;;
43801;SDS011;29429;51.074;13.764;2023-03-01T09:55:31;40.47;;;21.70;;
43801;SDS011;29429;51.074;13.764;2023-03-01T09:58:39;37.67;;;21.70;;
43801;SDS011;29429;51.074;13.764;2023-03-01T10:01:34;36.47;;;21.80;;
43801;SDS011;29429;51.074;13.764;2023-03-01T10:10:10;37.60;;;21.48;;
43801;SDS011;29429;51.074;13.764;2023-03-01T10:12:55;39.63;;;21.70;;
43801;SDS011;29429;51.074;13.764;2023-03-01T10:15:38;38.25;;;21.27;;
43801;SDS011;29429;51.074;13.764;2023-03-01T10:18:15;37.42;;;20.27;;
43801;SDS011;29429;51.074;13.764;2023-03-01T10:20:50;38.30;;;20.73;;
43801;SDS011;29429;51.074;13.764;2023-03-01T10:23:22;36.72;;;21.10;;
43801;SDS011;29429;51.074;13.764;2023-03-01T10:31:24;34.38;;;19.25;;
43801;SDS011;29429;51.074;13.764;2023-03-01T10:34:20;33.47;;;19.35;;
43801;SDS011;29429;51.074;13.764;2023-03-01T10:37:00;29.13;;;16.20;;
43801;SDS011;29429;51.074;13.764;2023-03-01T10:40:04;24.70;;;15.27;;
43801;SDS011;29429;51.074;13.764;2023-03-01T10:42:40;29.90;;;16.08;;
43801;SDS011;29429;51.074;13.764;2023-03-01T10:45:17;23.48;;;13.45;;
43801;SDS011;29429;51.074;13.764;2023-03-01T10:48:05;31.40;;;18.05;;
43801;SDS011;29429;51.074;13.764;2023-03-01T10:50:46;31.88;;;17.95;;
43801;SDS011;29429;51.074;13.764;2023-03-01T10:53:28;29.17;;;16.23;;
43801;SDS011;29429;51.074;13.764;2023-03-01T10:56:14;24.48;;;14.75;;
43801;SDS011;29429;51.074;13.764;2023-03-01T10:58:58;30.42;;;16.13;;
43801;SDS011;29429;51.074;13.764;2023-03-01T11:01:37;31.67;;;17.92;;
43801;SDS011;29429;51.074;13.764;2023-03-01T11:06:40;27.65;;;15.07;;
43801;SDS011;29429;51.074;13.764;2023-03-01T11:09:24;24.63;;;14.75;;
43801;SDS011;29429;51.074;13.764;2023-03-01T11:11:54;24.98;;;14.05;;
43801;SDS011;29429;51.074;13.764;2023-03-01T11:14:32;24.20;;;13.95;;
43801;SDS011;29429;51.074;13.764;2023-03-01T11:17:05;24.85;;;14.43;;
43801;SDS011;29429;51.074;13.764;2023-03-01T11:20:23;24.42;;;13.70;;
43801;SDS011;29429;51.074;13.764;2023-03-01T11:23:10;24.38;;;13.60;;
43801;SDS011;29429;51.074;13.764;2023-03-01T11:25:44;23.13;;;13.35;;
43801;SDS011;29429;51.074;13.764;2023-03-01T11:28:21;21.48;;;13.85;;
43801;SDS011;29429;51.074;13.764;2023-03-01T11:30:55;20.42;;;12.40;;
43801;SDS011;29429;51.074;13.764;2023-03-01T11:33:49;22.23;;;13.13;;
43801;SDS011;29429;51.074;13.764;2023-03-01T11:39:25;21.08;;;12.55;;
43801;SDS011;29429;51.074;13.764;2023-03-01T11:42:17;23.05;;;11.77;;
43801;SDS011;29429;51.074;13.764;2023-03-01T11:44:52;21.98;;;12.82;;
43801;SDS011;29429;51.074;13.764;2023-03-01T11:50:20;17.48;;;10.75;;
43801;SDS011;29429;51.074;13.764;2023-03-01T11:56:28;18.83;;;10.85;;
43801;SDS011;29429;51.074;13.764;2023-03-01T11:59:21;18.55;;;10.48;;
43801;SDS011;29429;51.074;13.764;2023-03-01T12:02:16;20.67;;;10.90;;
43801;SDS011;29429;51.074;13.764;2023-03-01T12:11:03;18.27;;;10.88;;
43801;SDS011;29429;51.074;13.764;2023-03-01T12:23:10;25.23;;;13.30;;
43801;SDS011;29429;51.074;13.764;2023-03-01T12:25:58;21.45;;;13.35;;
43801;SDS011;29429;51.074;13.764;2023-03-01T12:31:39;23.83;;;13.60;;
43801;SDS011;29429;51.074;13.764;2023-03-01T12:34:46;24.27;;;14.52;;
43801;SDS011;29429;51.074;13.764;2023-03-01T12:43:36;26.23;;;15.70;;
43801;SDS011;29429;51.074;13.764;2023-03-01T12:49:28;25.77;;;14.35;;
43801;SDS011;29429;51.074;13.764;2023-03-01T12:55:05;26.13;;;15.25;;
43801;SDS011;29429;51.074;13.764;2023-03-01T12:57:54;24.60;;;14.15;;
43801;SDS011;29429;51.074;13.764;2023-03-01T13:01:30;24.92;;;14.82;;
43801;SDS011;29429;51.074;13.764;2023-03-01T13:04:12;25.50;;;14.90;;
43801;SDS011;29429;51.074;13.764;2023-03-01T13:12:49;28.25;;;14.68;;
43801;SDS011;29429;51.074;13.764;2023-03-01T13:17:51;26.33;;;14.80;;
43801;SDS011;29429;51.074;13.764;2023-03-01T13:20:49;22.42;;;13.32;;
43801;SDS011;29429;51.074;13.764;2023-03-01T13:31:11;25.77;;;13.60;;
43801;SDS011;29429;51.074;13.764;2023-03-01T13:33:58;26.92;;;14.77;;
43801;SDS011;29429;51.074;13.764;2023-03-01T13:38:55;20.98;;;13.05;;
43801;SDS011;29429;51.074;13.764;2023-03-01T13:44:28;26.70;;;14.63;;
43801;SDS011;29429;51.074;13.764;2023-03-01T13:50:15;29.15;;;16.10;;
43801;SDS011;29429;51.074;13.764;2023-03-01T13:57:44;27.38;;;13.32;;
43801;SDS011;29429;51.074;13.764;2023-03-01T14:00:33;26.58;;;13.80;;
43801;SDS011;29429;51.074;13.764;2023-03-01T14:03:18;22.73;;;14.25;;
43801;SDS011;29429;51.074;13.764;2023-03-01T14:12:34;21.80;;;14.13;;
43801;SDS011;29429;51.074;13.764;2023-03-01T14:18:20;25.45;;;14.25;;
43801;SDS011;29429;51.074;13.764;2023-03-01T14:21:08;26.48;;;13.88;;
43801;SDS011;29429;51.074;13.764;2023-03-01T14:23:37;24.80;;;14.25;;
43801;SDS011;29429;51.074;13.764;2023-03-01T14:26:08;27.58;;;15.55;;
43801;SDS011;29429;51.074;13.764;2023-03-01T14:28:38;24.55;;;14.65;;
43801;SDS011;29429;51.074;13.764;2023-03-01T14:34:19;25.85;;;14.15;;
43801;SDS011;29429;51.074;13.764;2023-03-01T14:36:50;27.42;;;15.13;;
43801;SDS011;29429;51.074;13.764;2023-03-01T14:39:24;23.88;;;14.35;;
43801;SDS011;29429;51.074;13.764;2023-03-01T14:41:52;26.77;;;14.43;;
43801;SDS011;29429;51.074;13.764;2023-03-01T14:44:21;22.42;;;13.77;;
43801;SDS011;29429;51.074;13.764;2023-03-01T14:46:54;23.52;;;13.98;;
43801;SDS011;29429;51.074;13.764;2023-03-01T14:49:27;24.67;;;12.93;;
43801;SDS011;29429;51.074;13.764;2023-03-01T14:52:19;25.10;;;14.20;;
43801;SDS011;29429;51.074;13.764;2023-03-01T14:54:56;21.45;;;12.48;;
43801;SDS011;29429;51.074;13.764;2023-03-01T14:57:24;22.63;;;12.43;;
43801;SDS011;29429;51.074;13.764;2023-03-01T14:59:54;23.20;;;13.75;;
43801;SDS011;29429;51.074;13.764;2023-03-01T15:02:26;19.73;;;11.40;;
43801;SDS011;29429;51.074;13.764;2023-03-01T15:04:57;19.27;;;12.32;;
43801;SDS011;29429;51.074;13.764;2023-03-01T15:07:36;22.75;;;12.98;;
43801;SDS011;29429;51.074;13.764;2023-03-01T15:10:13;24.08;;;13.52;;
43801;SDS011;29429;51.074;13.764;2023-03-01T15:12:53;24.02;;;13.10;;
43801;SDS011;29429;51.074;13.764;2023-03-01T15:15:21;22.40;;;12.65;;
43801;SDS011;29429;51.074;13.764;2023-03-01T15:17:55;22.17;;;13.88;;
43801;SDS011;29429;51.074;13.764;2023-03-01T15:20:26;21.10;;;12.88;;
43801;SDS011;29429;51.074;13.764;2023-03-01T15:22:56;22.67;;;13.02;;
43801;SDS011;29429;51.074;13.764;2023-03-01T15:25:25;24.23;;;13.52;;
43801;SDS011;29429;51.074;13.764;2023-03-01T15:27:56;19.05;;;11.55;;
43801;SDS011;29429;51.074;13.764;2023-03-01T15:30:32;20.35;;;12.10;;
43801;SDS011;29429;51.074;13.764;2023-03-01T15:33:17;24.67;;;12.80;;
43801;SDS011;29429;51.074;13.764;2023-03-01T15:38:35;21.38;;;12.25;;
43801;SDS011;29429;51.074;13.764;2023-03-01T15:47:25;20.25;;;11.18;;
43801;SDS011;29429;51.074;13.764;2023-03-01T15:49:56;18.05;;;10.63;;
43801;SDS011;29429;51.074;13.764;2023-03-01T15:52:34;22.33;;;12.13;;
43801;SDS011;29429;51.074;13.764;2023-03-01T15:55:14;23.63;;;13.18;;
43801;SDS011;29429;51.074;13.764;2023-03-01T15:57:45;21.02;;;11.65;;
43801;SDS011;29429;51.074;13.764;2023-03-01T16:00:16;21.52;;;12.55;;
43801;SDS011;29429;51.074;13.764;2023-03-01T16:02:43;19.23;;;10.82;;
43801;SDS011;29429;51.074;13.764;2023-03-01T16:05:26;19.67;;;11.65;;
43801;SDS011;29429;51.074;13.764;2023-03-01T16:08:03;19.67;;;10.90;;
43801;SDS011;29429;51.074;13.764;2023-03-01T16:10:32;20.55;;;11.80;;
43801;SDS011;29429;51.074;13.764;2023-03-01T16:13:01;20.42;;;12.02;;
43801;SDS011;29429;51.074;13.764;2023-03-01T16:15:28;21.15;;;11.00;;
43801;SDS011;29429;51.074;13.764;2023-03-01T16:18:00;19.95;;;10.45;;
43801;SDS011;29429;51.074;13.764;2023-03-01T16:20:28;18.35;;;10.32;;
43801;SDS011;29429;51.074;13.764;2023-03-01T16:22:59;14.32;;;8.38;;
43801;SDS011;29429;51.074;13.764;2023-03-01T16:25:33;16.20;;;8.95;;
43801;SDS011;29429;51.074;13.764;2023-03-01T16:28:01;16.45;;;9.23;;
43801;SDS011;29429;51.074;13.764;2023-03-01T16:30:35;18.48;;;9.27;;
43801;SDS011;29429;51.074;13.764;2023-03-01T16:33:05;21.70;;;10.93;;
43801;SDS011;29429;51.074;13.764;2023-03-01T16:35:54;20.63;;;10.23;;
43801;SDS011;29429;51.074;13.764;2023-03-01T16:38:21;18.77;;;9.73;;
43801;SDS011;29429;51.074;13.764;2023-03-01T16:40:50;15.90;;;9.02;;
43801;SDS011;29429;51.074;13.764;2023-03-01T16:43:18;23.90;;;11.38;;
43801;SDS011;29429;51.074;13.764;2023-03-01T16:45:45;27.65;;;12.93;;
43801;SDS011;29429;51.074;13.764;2023-03-01T16:48:12;20.20;;;10.95;;
43801;SDS011;29429;51.074;13.764;2023-03-01T16:50:40;19.40;;;10.52;;
43801;SDS011;29429;51.074;13.764;2023-03-01T16:53:07;19.65;;;10.73;;
43801;SDS011;29429;51.074;13.764;2023-03-01T16:55:34;19.25;;;9.80;;